createdAt,value
2023-03-29T00:02:11.167Z,17.50
2023-03-29T00:04:45.243Z,22.73
2023-03-29T00:07:18.399Z,16.75
2023-03-29T00:09:51.489Z,22.80
2023-03-29T00:12:24.460Z,14.97
2023-03-29T00:14:58.803Z,20.33
2023-03-29T00:17:32.036Z,15.05
2023-03-29T00:20:08.548Z,13.30
2023-03-29T00:22:43.136Z,15.38
2023-03-29T00:25:16.381Z,14.00
2023-03-29T00:27:49.417Z,14.45
2023-03-29T00:30:23.815Z,19.73
2023-03-29T00:33:02.042Z,13.65
2023-03-29T00:35:35.524Z,13.18
2023-03-29T00:38:08.546Z,19.13
2023-03-29T00:40:43.813Z,15.27
2023-03-29T00:43:17.609Z,13.73
2023-03-29T00:45:52.044Z,19.25
2023-03-29T00:48:29.043Z,11.00
2023-03-29T00:51:08.208Z,17.38
2023-03-29T00:53:48.381Z,13.48
2023-03-29T00:56:25.110Z,13.45
2023-03-29T00:59:02.368Z,12.98
2023-03-29T01:01:43.362Z,13.07
2023-03-29T01:04:21.153Z,16.90
2023-03-29T01:06:58.337Z,11.65
2023-03-29T01:09:35.073Z,12.95
2023-03-29T01:12:14.414Z,13.27
2023-03-29T01:14:52.494Z,11.93
2023-03-29T01:17:26.959Z,11.60
2023-03-29T01:20:10.802Z,11.65
2023-03-29T01:23:06.610Z,11.77
2023-03-29T01:25:47.300Z,13.73
2023-03-29T01:28:24.379Z,10.32
2023-03-29T01:31:03.802Z,11.30
2023-03-29T01:33:42.669Z,14.98
2023-03-29T01:36:20.161Z,8.75
2023-03-29T01:38:58.158Z,11.00
2023-03-29T01:41:41.357Z,12.32
2023-03-29T01:44:20.639Z,12.25
2023-03-29T01:46:56.900Z,8.07
2023-03-29T01:49:38.070Z,7.80
2023-03-29T01:52:17.403Z,9.88
2023-03-29T01:54:57.263Z,10.05
2023-03-29T01:57:33.065Z,12.55
2023-03-29T02:00:11.084Z,10.25
2023-03-29T02:02:48.033Z,10.93
2023-03-29T02:05:24.525Z,9.73
2023-03-29T02:08:00.003Z,9.32
2023-03-29T02:10:35.085Z,13.02
2023-03-29T02:13:09.432Z,13.23
2023-03-29T02:15:45.627Z,11.40
2023-03-29T02:18:21.055Z,14.32
2023-03-29T02:20:56.103Z,11.25
2023-03-29T02:23:34.961Z,11.18
2023-03-29T02:26:09.080Z,13.68
2023-03-29T02:28:42.818Z,9.95
2023-03-29T02:31:24.944Z,9.07
2023-03-29T02:34:03.399Z,14.10
2023-03-29T02:36:41.720Z,12.50
2023-03-29T02:39:17.095Z,10.23
2023-03-29T02:41:52.406Z,12.48
2023-03-29T02:44:28.915Z,11.43
2023-03-29T02:47:07.746Z,15.85
2023-03-29T02:49:40.721Z,12.23
2023-03-29T02:52:18.818Z,12.18
2023-03-29T02:54:55.168Z,15.30
2023-03-29T02:57:28.759Z,11.93
2023-03-29T03:00:04.633Z,8.80
2023-03-29T03:02:39.292Z,16.02
2023-03-29T03:05:14.182Z,10.98
2023-03-29T03:07:47.448Z,17.65
2023-03-29T03:10:20.452Z,10.63
2023-03-29T03:12:53.455Z,11.77
2023-03-29T03:15:27.394Z,11.70
2023-03-29T03:18:02.239Z,9.98
2023-03-29T03:20:35.320Z,9.88
2023-03-29T03:23:09.757Z,10.93
2023-03-29T03:25:45.840Z,8.00
2023-03-29T03:28:20.283Z,10.77
2023-03-29T03:30:54.236Z,9.60
2023-03-29T03:33:47.438Z,6.85
2023-03-29T03:36:43.227Z,12.55
2023-03-29T03:39:18.364Z,27.92
2023-03-29T03:41:51.503Z,16.58
2023-03-29T03:44:24.942Z,16.30
2023-03-29T03:47:14.798Z,20.38
2023-03-29T03:49:49.977Z,13.70
2023-03-29T03:52:25.273Z,13.85
2023-03-29T03:57:47.959Z,17.23
2023-03-29T04:00:24.360Z,13.98
2023-03-29T04:03:17.183Z,15.68
2023-03-29T04:05:52.052Z,21.30
2023-03-29T04:08:27.256Z,22.15
2023-03-29T04:11:15.331Z,29.88
2023-03-29T04:13:48.885Z,28.60
2023-03-29T04:16:34.920Z,31.85
2023-03-29T04:19:23.090Z,24.42
2023-03-29T04:21:57.920Z,25.10
2023-03-29T04:24:30.944Z,19.80
2023-03-29T04:27:24.209Z,21.15
2023-03-29T04:29:57.319Z,20.17
2023-03-29T04:32:50.500Z,19.15
2023-03-29T04:35:24.982Z,15.38
2023-03-29T04:37:59.545Z,15.02
2023-03-29T04:40:33.513Z,24.20
2023-03-29T04:43:23.764Z,16.92
2023-03-29T04:46:13.270Z,17.98
2023-03-29T04:49:05.906Z,18.98
2023-03-29T04:51:42.377Z,16.38
2023-03-29T04:54:17.702Z,17.27
2023-03-29T04:57:19.693Z,17.88
2023-03-29T05:00:16.952Z,16.08
2023-03-29T05:03:08.113Z,14.93
2023-03-29T05:05:45.364Z,15.85
2023-03-29T05:08:18.535Z,15.38
2023-03-29T05:11:13.642Z,20.20
2023-03-29T05:13:48.345Z,11.10
2023-03-29T05:16:21.658Z,19.30
2023-03-29T05:18:55.378Z,12.82
2023-03-29T05:21:29.435Z,10.48
2023-03-29T05:24:06.132Z,11.63
2023-03-29T05:27:00.502Z,13.43
2023-03-29T05:29:36.737Z,12.90
2023-03-29T05:32:28.698Z,12.57
2023-03-29T05:35:01.876Z,11.63
2023-03-29T05:37:35.127Z,30.90
2023-03-29T05:40:10.370Z,16.42
2023-03-29T05:43:02.578Z,15.48
2023-03-29T05:45:35.613Z,11.70
2023-03-29T05:48:08.939Z,10.48
2023-03-29T05:50:44.437Z,9.27
2023-03-29T05:53:20.121Z,15.25
2023-03-29T05:55:54.762Z,12.07
2023-03-29T05:58:31.106Z,9.80
2023-03-29T06:01:06.051Z,9.20
2023-03-29T06:04:02.207Z,10.23
2023-03-29T06:06:45.378Z,11.63
2023-03-29T06:09:19.117Z,11.32
2023-03-29T06:12:04.015Z,12.90
2023-03-29T06:14:48.265Z,13.98
2023-03-29T06:17:31.643Z,16.05
2023-03-29T06:20:08.800Z,16.08
2023-03-29T06:22:42.889Z,18.98
2023-03-29T06:25:18.492Z,11.65
2023-03-29T06:27:54.212Z,11.50
2023-03-29T06:30:28.852Z,10.35
2023-03-29T06:33:02.898Z,11.05
2023-03-29T06:35:59.843Z,20.08
2023-03-29T06:38:35.311Z,9.60
2023-03-29T06:41:21.567Z,13.35
2023-03-29T06:44:23.234Z,9.27
2023-03-29T06:47:06.267Z,15.48
2023-03-29T06:49:39.534Z,13.20
2023-03-29T06:52:26.104Z,13.00
2023-03-29T06:55:01.695Z,11.98
2023-03-29T06:57:35.221Z,12.23
2023-03-29T07:00:17.077Z,13.35
2023-03-29T07:03:26.862Z,13.52
2023-03-29T07:06:03.948Z,12.27
2023-03-29T07:08:43.495Z,12.98
2023-03-29T07:11:24.169Z,12.32
2023-03-29T07:14:03.881Z,10.57
2023-03-29T07:16:40.053Z,11.45
2023-03-29T07:19:29.093Z,9.85
2023-03-29T07:22:02.335Z,9.00
2023-03-29T07:24:49.359Z,11.95
2023-03-29T07:27:22.745Z,10.38
2023-03-29T07:29:56.975Z,9.15
2023-03-29T07:32:32.162Z,9.13
2023-03-29T07:35:30.824Z,8.68
2023-03-29T07:38:04.521Z,8.70
2023-03-29T07:40:38.650Z,11.98
2023-03-29T07:43:30.387Z,6.00
2023-03-29T07:46:04.872Z,7.13
2023-03-29T07:48:40.012Z,6.30
2023-03-29T07:51:17.390Z,7.30
2023-03-29T07:54:05.555Z,9.95
2023-03-29T07:56:41.637Z,9.82
2023-03-29T07:59:25.264Z,6.82
2023-03-29T08:02:08.353Z,10.02
2023-03-29T08:05:06.392Z,9.32
2023-03-29T08:08:01.172Z,8.52
2023-03-29T08:10:58.222Z,8.65
2023-03-29T08:13:42.082Z,7.10
2023-03-29T08:16:33.609Z,10.85
2023-03-29T08:19:14.677Z,6.40
2023-03-29T08:22:10.885Z,5.15
2023-03-29T08:25:04.317Z,6.60
2023-03-29T08:27:42.546Z,6.00
2023-03-29T08:30:17.458Z,6.28
2023-03-29T08:32:53.007Z,8.75
2023-03-29T08:35:28.284Z,6.68
2023-03-29T08:38:21.973Z,6.55
2023-03-29T08:40:58.043Z,5.93
2023-03-29T08:44:02.079Z,6.03
2023-03-29T08:47:03.688Z,9.52
2023-03-29T08:50:02.530Z,7.80
2023-03-29T08:52:50.108Z,6.53
2023-03-29T08:55:49.003Z,7.53
2023-03-29T08:58:56.359Z,6.93
2023-03-29T09:01:35.410Z,7.60
2023-03-29T09:04:14.856Z,7.55
2023-03-29T09:07:12.445Z,6.45
2023-03-29T09:09:49.866Z,4.95
2023-03-29T09:12:50.461Z,6.88
2023-03-29T09:15:31.829Z,6.28
2023-03-29T09:18:23.863Z,7.05
2023-03-29T09:21:02.146Z,5.57
2023-03-29T09:24:08.577Z,5.38
2023-03-29T09:27:05.724Z,6.32
2023-03-29T09:30:00.656Z,5.53
2023-03-29T09:32:55.526Z,4.63
2023-03-29T09:35:39.120Z,4.13
2023-03-29T09:38:15.077Z,3.20
2023-03-29T09:40:52.804Z,6.43
2023-03-29T09:43:33.475Z,4.00
2023-03-29T09:46:18.212Z,5.07
2023-03-29T09:48:54.735Z,6.30
2023-03-29T09:51:31.172Z,7.38
2023-03-29T09:54:04.633Z,5.32
2023-03-29T09:57:00.267Z,6.43
2023-03-29T09:59:33.454Z,7.38
2023-03-29T10:02:08.546Z,6.82
2023-03-29T10:04:44.633Z,6.93
2023-03-29T10:07:23.774Z,4.22
2023-03-29T10:10:02.453Z,4.28
2023-03-29T10:12:36.694Z,6.75
2023-03-29T10:15:26.745Z,4.28
2023-03-29T10:18:06.934Z,3.70
2023-03-29T10:20:42.139Z,4.97
2023-03-29T10:23:19.432Z,6.55
2023-03-29T10:25:53.235Z,4.90
2023-03-29T10:28:31.114Z,4.40
2023-03-29T10:31:08.159Z,3.70
2023-03-29T10:33:41.872Z,4.65
2023-03-29T10:36:16.564Z,5.78
2023-03-29T10:38:49.693Z,3.47
2023-03-29T10:41:24.305Z,2.53
2023-03-29T10:43:57.563Z,5.53
2023-03-29T10:46:33.008Z,4.38
2023-03-29T10:49:16.236Z,3.80
2023-03-29T10:51:56.732Z,3.90
2023-03-29T10:54:29.901Z,4.55
2023-03-29T10:57:09.025Z,3.95
2023-03-29T10:59:54.287Z,3.30
2023-03-29T11:02:50.228Z,4.72
2023-03-29T11:05:31.333Z,5.72
2023-03-29T11:08:24.476Z,4.35
2023-03-29T11:11:09.752Z,6.88
2023-03-29T11:13:51.483Z,7.05
2023-03-29T11:16:31.845Z,4.57
2023-03-29T11:19:17.830Z,5.68
2023-03-29T11:21:59.114Z,4.72
2023-03-29T11:24:52.552Z,4.85
2023-03-29T11:27:36.907Z,3.28
2023-03-29T11:30:20.514Z,4.18
2023-03-29T11:33:03.772Z,5.30
2023-03-29T11:35:48.861Z,3.08
2023-03-29T11:38:30.503Z,3.88
2023-03-29T11:41:13.565Z,4.45
2023-03-29T11:43:50.724Z,4.50
2023-03-29T11:46:29.066Z,3.65
2023-03-29T11:49:06.263Z,4.05
2023-03-29T11:51:43.797Z,4.13
2023-03-29T11:54:21.720Z,3.60
2023-03-29T11:57:01.811Z,5.50
2023-03-29T11:59:42.163Z,2.58
2023-03-29T12:02:22.816Z,4.20
2023-03-29T12:04:59.869Z,3.20
2023-03-29T12:07:37.976Z,4.90
2023-03-29T12:10:19.011Z,6.22
2023-03-29T12:13:00.988Z,4.43
2023-03-29T12:15:39.233Z,3.47
2023-03-29T12:18:21.265Z,3.65
2023-03-29T12:21:00.171Z,4.97
2023-03-29T12:23:34.700Z,3.38
2023-03-29T12:26:35.148Z,3.67
2023-03-29T12:29:38.061Z,4.18
2023-03-29T12:32:33.004Z,6.03
2023-03-29T12:35:48.857Z,3.92
2023-03-29T12:38:43.486Z,4.05
2023-03-29T12:41:53.458Z,5.18
2023-03-29T12:44:50.510Z,6.85
2023-03-29T12:47:42.488Z,3.53
2023-03-29T12:50:35.116Z,6.97
2023-03-29T12:53:19.726Z,6.45
2023-03-29T12:56:08.920Z,5.35
2023-03-29T12:58:51.414Z,4.40
2023-03-29T13:01:29.248Z,4.13
2023-03-29T13:04:18.475Z,9.38
2023-03-29T13:07:04.081Z,9.68
2023-03-29T13:09:50.015Z,4.40
2023-03-29T13:12:27.846Z,5.13
2023-03-29T13:15:03.391Z,4.80
2023-03-29T13:17:51.331Z,5.40
2023-03-29T13:20:44.594Z,8.13
2023-03-29T13:23:39.253Z,7.78
2023-03-29T13:26:31.625Z,5.80
2023-03-29T13:29:32.981Z,5.97
2023-03-29T13:32:27.381Z,8.05
2023-03-29T13:35:14.180Z,7.93
2023-03-29T13:38:02.294Z,4.70
2023-03-29T13:40:46.921Z,4.90
2023-03-29T13:43:23.716Z,5.20
2023-03-29T13:46:24.577Z,6.68
2023-03-29T13:49:06.885Z,5.70
2023-03-29T13:51:44.997Z,5.85
2023-03-29T13:54:28.288Z,13.35
2023-03-29T13:57:10.369Z,4.00
2023-03-29T13:59:55.797Z,5.88
2023-03-29T14:02:41.720Z,7.78
2023-03-29T14:05:18.932Z,5.47
2023-03-29T14:07:56.637Z,9.07
2023-03-29T14:10:38.068Z,9.30
2023-03-29T14:13:17.044Z,8.68
2023-03-29T14:15:54.814Z,6.20
2023-03-29T14:18:33.296Z,6.15
2023-03-29T14:21:11.009Z,6.85
2023-03-29T14:23:48.442Z,5.47
2023-03-29T14:26:24.080Z,4.55
2023-03-29T14:28:59.019Z,7.15
2023-03-29T14:31:33.987Z,7.65
2023-03-29T14:34:12.477Z,9.93
2023-03-29T14:36:46.876Z,5.88
2023-03-29T14:39:23.679Z,7.68
2023-03-29T14:41:58.175Z,6.30
2023-03-29T14:44:33.227Z,6.72
2023-03-29T14:47:06.545Z,5.72
2023-03-29T14:49:39.702Z,7.65
2023-03-29T14:52:13.761Z,7.00
2023-03-29T14:54:52.292Z,5.95
2023-03-29T14:57:27.281Z,8.15
2023-03-29T15:00:02.433Z,8.55
2023-03-29T15:02:35.685Z,6.65
2023-03-29T15:05:25.751Z,5.63
2023-03-29T15:07:59.507Z,6.18
2023-03-29T15:10:35.660Z,6.15
2023-03-29T15:13:09.758Z,6.50
2023-03-29T15:15:43.093Z,5.65
2023-03-29T15:18:21.854Z,5.78
2023-03-29T15:20:55.582Z,6.75
2023-03-29T15:23:36.880Z,6.78
2023-03-29T15:26:15.829Z,6.53
2023-03-29T15:28:55.502Z,6.32
2023-03-29T15:31:35.746Z,7.40
2023-03-29T15:34:12.499Z,4.93
2023-03-29T15:36:47.397Z,6.10
2023-03-29T15:39:20.980Z,11.52
2023-03-29T15:41:56.873Z,7.38
2023-03-29T15:44:33.859Z,6.13
2023-03-29T15:47:10.706Z,7.40
2023-03-29T15:49:47.740Z,6.35
2023-03-29T15:52:20.839Z,5.35
2023-03-29T15:54:54.164Z,8.05
2023-03-29T15:57:28.695Z,5.97
2023-03-29T16:00:02.758Z,9.75
2023-03-29T16:02:45.594Z,8.40
2023-03-29T16:05:21.893Z,33.65
2023-03-29T16:07:57.913Z,7.53
2023-03-29T16:10:30.950Z,7.65
2023-03-29T16:13:05.468Z,7.97
2023-03-29T16:15:38.723Z,9.43
2023-03-29T16:18:11.766Z,9.95
2023-03-29T16:20:44.843Z,12.50
2023-03-29T16:23:21.071Z,9.57
2023-03-29T16:25:54.217Z,10.25
2023-03-29T16:28:28.718Z,13.05
2023-03-29T16:31:05.260Z,9.80
2023-03-29T16:33:38.768Z,10.73
2023-03-29T16:36:19.978Z,11.90
2023-03-29T16:38:53.775Z,10.40
2023-03-29T16:41:27.814Z,17.02
2023-03-29T16:49:08.912Z,20.98
2023-03-29T16:51:44.150Z,28.65
2023-03-29T16:54:25.845Z,33.92
2023-03-29T16:57:02.574Z,45.30
2023-03-29T16:59:37.514Z,44.97
2023-03-29T17:02:14.276Z,39.80
2023-03-29T17:04:49.322Z,31.38
2023-03-29T17:07:27.575Z,31.98
2023-03-29T17:10:00.703Z,30.63
2023-03-29T17:12:33.864Z,27.80
2023-03-29T17:15:09.483Z,30.30
2023-03-29T17:17:42.574Z,26.55
2023-03-29T17:20:15.701Z,31.30
2023-03-29T17:22:51.654Z,40.38
2023-03-29T17:25:24.853Z,35.20
2023-03-29T17:27:57.931Z,41.72
2023-03-29T17:30:34.449Z,42.30
2023-03-29T17:33:09.472Z,45.03
2023-03-29T17:35:46.245Z,51.78
2023-03-29T17:38:21.157Z,47.88
2023-03-29T17:40:54.337Z,46.13
2023-03-29T17:43:27.344Z,57.28
2023-03-29T17:46:02.225Z,53.83
2023-03-29T17:48:38.214Z,51.33
2023-03-29T17:51:11.237Z,53.92
2023-03-29T17:53:46.097Z,55.92
2023-03-29T17:56:20.276Z,48.30
2023-03-29T17:58:53.584Z,42.08
2023-03-29T18:01:33.521Z,39.00
2023-03-29T18:04:07.589Z,38.75
2023-03-29T18:06:40.632Z,30.67
2023-03-29T18:09:14.133Z,37.38
2023-03-29T18:11:47.150Z,46.92
2023-03-29T18:14:27.887Z,45.90
2023-03-29T18:17:14.993Z,50.53
2023-03-29T18:19:49.218Z,45.78
2023-03-29T18:22:28.860Z,55.38
2023-03-29T18:25:07.183Z,47.50
2023-03-29T18:27:45.161Z,47.03
2023-03-29T18:30:19.272Z,44.38
2023-03-29T18:32:55.184Z,50.47
2023-03-29T18:35:34.981Z,58.08
2023-03-29T18:38:14.167Z,61.38
2023-03-29T18:40:48.347Z,75.40
2023-03-29T18:43:23.391Z,63.80
2023-03-29T18:45:59.427Z,64.35
2023-03-29T18:48:42.016Z,60.40
2023-03-29T18:54:10.249Z,61.58
2023-03-29T18:56:46.964Z,54.08
2023-03-29T18:59:24.754Z,47.35
2023-03-29T19:02:03.936Z,46.92
2023-03-29T19:05:00.861Z,50.22
2023-03-29T19:07:41.768Z,51.53
2023-03-29T19:10:16.484Z,52.92
2023-03-29T19:13:01.411Z,61.47
2023-03-29T19:15:38.408Z,52.33
2023-03-29T19:18:14.417Z,53.65
2023-03-29T19:20:57.961Z,45.85
2023-03-29T19:23:34.183Z,47.80
2023-03-29T19:26:20.387Z,44.78
2023-03-29T19:28:53.848Z,40.40
2023-03-29T19:31:38.246Z,48.33
2023-03-29T19:34:27.883Z,48.25
2023-03-29T19:37:02.423Z,52.42
2023-03-29T19:39:35.463Z,36.53
2023-03-29T19:42:08.821Z,36.45
2023-03-29T19:44:47.051Z,34.10
2023-03-29T19:47:25.322Z,33.85
2023-03-29T19:49:59.639Z,39.75
2023-03-29T19:52:46.684Z,41.40
2023-03-29T19:55:22.644Z,34.63
2023-03-29T19:57:56.662Z,34.38
2023-03-29T20:00:30.040Z,27.70
2023-03-29T20:03:05.278Z,29.02
2023-03-29T20:05:39.883Z,32.80
2023-03-29T20:08:16.593Z,33.25
2023-03-29T20:11:10.427Z,31.90
2023-03-29T20:13:46.410Z,32.55
2023-03-29T20:19:14.130Z,31.98
2023-03-29T20:21:58.962Z,33.38
2023-03-29T20:24:36.362Z,37.90
2023-03-29T20:27:09.697Z,33.15
2023-03-29T20:29:45.420Z,36.50
2023-03-29T20:32:18.517Z,34.47
2023-03-29T20:34:54.597Z,30.60
2023-03-29T20:37:27.711Z,28.20
2023-03-29T20:40:04.073Z,28.95
2023-03-29T20:42:38.311Z,26.77
2023-03-29T20:45:18.645Z,23.73
2023-03-29T20:47:57.706Z,28.52
2023-03-29T20:50:31.011Z,29.10
2023-03-29T20:53:04.345Z,29.85
2023-03-29T20:55:39.121Z,31.23
2023-03-29T20:58:12.216Z,33.10
2023-03-29T21:00:46.915Z,31.30
2023-03-29T21:03:20.083Z,29.10
2023-03-29T21:05:55.915Z,28.05
2023-03-29T21:08:29.715Z,35.88
2023-03-29T21:11:04.281Z,28.92
2023-03-29T21:13:37.492Z,33.85
2023-03-29T21:16:11.595Z,37.67
2023-03-29T21:18:44.646Z,32.15
2023-03-29T21:21:17.704Z,37.70
2023-03-29T21:23:50.847Z,35.67
2023-03-29T21:26:26.139Z,40.20
2023-03-29T21:28:59.230Z,38.17
2023-03-29T21:31:32.205Z,39.67
2023-03-29T21:34:05.504Z,42.83
2023-03-29T21:36:39.817Z,34.08
2023-03-29T21:39:12.841Z,31.40
2023-03-29T21:41:47.422Z,30.80
2023-03-29T21:44:20.554Z,34.58
2023-03-29T21:46:53.644Z,28.42
2023-03-29T21:49:26.997Z,37.05
2023-03-29T21:52:00.000Z,33.90
2023-03-29T21:54:32.980Z,30.37
2023-03-29T21:57:07.433Z,30.43
2023-03-29T21:59:40.715Z,32.28
2023-03-29T22:02:13.744Z,26.33
2023-03-29T22:04:46.788Z,29.43
2023-03-29T22:07:22.787Z,31.83
2023-03-29T22:09:58.654Z,30.73
2023-03-29T22:12:37.135Z,28.02
2023-03-29T22:15:12.516Z,29.50
2023-03-29T22:17:45.672Z,31.17
2023-03-29T22:20:18.964Z,28.48
2023-03-29T22:22:55.673Z,26.90
2023-03-29T22:25:28.664Z,27.98
2023-03-29T22:28:03.033Z,28.93
2023-03-29T22:30:36.528Z,29.60
2023-03-29T22:33:09.606Z,23.83
2023-03-29T22:35:42.718Z,28.10
2023-03-29T22:38:15.807Z,30.90
2023-03-29T22:40:48.793Z,32.77
2023-03-29T22:43:23.351Z,30.57
2023-03-29T22:45:56.363Z,25.52
2023-03-29T22:48:29.338Z,32.63
2023-03-29T22:51:03.038Z,32.03
2023-03-29T22:56:09.932Z,25.30
2023-03-29T23:01:17.841Z,25.45
2023-03-29T23:03:50.933Z,28.58
2023-03-29T23:06:23.998Z,26.03
2023-03-29T23:08:56.971Z,30.10
2023-03-29T23:11:29.919Z,27.03
2023-03-29T23:14:04.885Z,27.67
2023-03-29T23:16:38.225Z,24.25
2023-03-29T23:19:11.369Z,27.38
2023-03-29T23:21:44.327Z,25.73
2023-03-29T23:24:19.216Z,25.93
2023-03-29T23:26:52.367Z,26.73
2023-03-29T23:29:26.837Z,26.45
2023-03-29T23:31:59.891Z,23.98
2023-03-29T23:34:33.164Z,31.08
2023-03-29T23:37:06.396Z,26.70
2023-03-29T23:39:39.520Z,29.75
2023-03-29T23:42:12.826Z,32.65
2023-03-29T23:44:47.383Z,32.75
2023-03-29T23:47:20.899Z,35.08
2023-03-29T23:49:54.671Z,31.05
2023-03-29T23:52:27.791Z,33.92
2023-03-29T23:55:01.557Z,23.58
2023-03-29T23:57:37.069Z,32.30
